sensor_id;sensor_type;location;lat;lon;timestamp;temperature;humidity
9125;DHT22;4597;48.730;9.114;2023-07-24T00:00:20;19.60;99.90
9125;DHT22;4597;48.730;9.114;2023-07-24T00:02:46;19.50;99.90
9125;DHT22;4597;48.730;9.114;2023-07-24T00:05:11;19.50;99.90
9125;DHT22;4597;48.730;9.114;2023-07-24T00:07:37;19.40;99.90
9125;DHT22;4597;48.730;9.114;2023-07-24T00:10:03;19.50;99.90
9125;DHT22;4597;48.730;9.114;2023-07-24T00:12:29;19.40;99.90
9125;DHT22;4597;48.730;9.114;2023-07-24T00:14:54;19.30;99.90
9125;DHT22;4597;48.730;9.114;2023-07-24T00:17:20;19.40;99.90
9125;DHT22;4597;48.730;9.114;2023-07-24T00:19:46;19.20;99.90
9125;DHT22;4597;48.730;9.114;2023-07-24T00:22:11;19.20;99.90
9125;DHT22;4597;48.730;9.114;2023-07-24T00:24:37;19.30;99.90
9125;DHT22;4597;48.730;9.114;2023-07-24T00:27:02;19.20;99.90
9125;DHT22;4597;48.730;9.114;2023-07-24T00:29:28;19.10;99.90
9125;DHT22;4597;48.730;9.114;2023-07-24T00:31:54;19.10;99.90
9125;DHT22;4597;48.730;9.114;2023-07-24T00:34:19;19.10;99.90
9125;DHT22;4597;48.730;9.114;2023-07-24T00:36:45;19.10;99.90
9125;DHT22;4597;48.730;9.114;2023-07-24T00:39:10;19.00;99.90
9125;DHT22;4597;48.730;9.114;2023-07-24T00:41:36;19.00;99.90
9125;DHT22;4597;48.730;9.114;2023-07-24T00:44:01;19.00;99.90
9125;DHT22;4597;48.730;9.114;2023-07-24T00:46:28;19.00;99.90
9125;DHT22;4597;48.730;9.114;2023-07-24T00:48:58;19.00;99.90
9125;DHT22;4597;48.730;9.114;2023-07-24T00:51:23;19.00;99.90
9125;DHT22;4597;48.730;9.114;2023-07-24T00:53:49;19.00;99.90
9125;DHT22;4597;48.730;9.114;2023-07-24T00:56:15;19.00;99.90
9125;DHT22;4597;48.730;9.114;2023-07-24T00:58:40;19.10;99.90
9125;DHT22;4597;48.730;9.114;2023-07-24T01:01:06;19.00;99.90
9125;DHT22;4597;48.730;9.114;2023-07-24T01:03:33;19.00;99.90
9125;DHT22;4597;48.730;9.114;2023-07-24T01:06:01;18.90;99.90
9125;DHT22;4597;48.730;9.114;2023-07-24T01:08:27;18.90;99.90
9125;DHT22;4597;48.730;9.114;2023-07-24T01:10:53;18.80;99.90
9125;DHT22;4597;48.730;9.114;2023-07-24T01:13:22;18.80;99.90
9125;DHT22;4597;48.730;9.114;2023-07-24T01:15:56;18.80;99.90
9125;DHT22;4597;48.730;9.114;2023-07-24T01:18:24;18.80;99.90
9125;DHT22;4597;48.730;9.114;2023-07-24T01:20:54;18.70;99.90
9125;DHT22;4597;48.730;9.114;2023-07-24T01:23:35;18.70;99.90
9125;DHT22;4597;48.730;9.114;2023-07-24T01:26:03;18.70;99.90
9125;DHT22;4597;48.730;9.114;2023-07-24T01:28:29;18.70;99.90
9125;DHT22;4597;48.730;9.114;2023-07-24T01:30:55;18.70;99.90
9125;DHT22;4597;48.730;9.114;2023-07-24T01:33:22;18.70;99.90
9125;DHT22;4597;48.730;9.114;2023-07-24T01:35:57;18.60;99.90
9125;DHT22;4597;48.730;9.114;2023-07-24T01:38:26;18.60;99.90
9125;DHT22;4597;48.730;9.114;2023-07-24T01:40:53;18.60;99.90
9125;DHT22;4597;48.730;9.114;2023-07-24T01:43:19;18.60;99.90
9125;DHT22;4597;48.730;9.114;2023-07-24T01:45:45;18.60;99.90
9125;DHT22;4597;48.730;9.114;2023-07-24T01:48:10;18.60;99.90
9125;DHT22;4597;48.730;9.114;2023-07-24T01:50:36;18.60;99.90
9125;DHT22;4597;48.730;9.114;2023-07-24T01:53:01;18.60;99.90
9125;DHT22;4597;48.730;9.114;2023-07-24T01:55:27;18.50;99.90
9125;DHT22;4597;48.730;9.114;2023-07-24T01:57:53;18.60;99.90
9125;DHT22;4597;48.730;9.114;2023-07-24T02:00:18;18.50;99.90
9125;DHT22;4597;48.730;9.114;2023-07-24T02:02:44;18.50;99.90
9125;DHT22;4597;48.730;9.114;2023-07-24T02:05:09;18.50;99.90
9125;DHT22;4597;48.730;9.114;2023-07-24T02:07:35;18.50;99.90
9125;DHT22;4597;48.730;9.114;2023-07-24T02:10:00;18.50;99.90
9125;DHT22;4597;48.730;9.114;2023-07-24T02:12:26;18.50;99.90
9125;DHT22;4597;48.730;9.114;2023-07-24T02:14:51;18.50;99.90
9125;DHT22;4597;48.730;9.114;2023-07-24T02:17:18;18.50;99.90
9125;DHT22;4597;48.730;9.114;2023-07-24T02:19:44;18.60;99.90
9125;DHT22;4597;48.730;9.114;2023-07-24T02:22:09;18.50;99.90
9125;DHT22;4597;48.730;9.114;2023-07-24T02:24:35;18.60;99.90
9125;DHT22;4597;48.730;9.114;2023-07-24T02:27:01;18.60;99.90
9125;DHT22;4597;48.730;9.114;2023-07-24T02:29:27;18.60;99.90
9125;DHT22;4597;48.730;9.114;2023-07-24T02:31:54;18.50;99.90
9125;DHT22;4597;48.730;9.114;2023-07-24T02:34:20;18.50;99.90
9125;DHT22;4597;48.730;9.114;2023-07-24T02:36:49;18.50;99.90
9125;DHT22;4597;48.730;9.114;2023-07-24T02:39:15;18.50;99.90
9125;DHT22;4597;48.730;9.114;2023-07-24T02:41:40;18.50;99.90
9125;DHT22;4597;48.730;9.114;2023-07-24T02:44:06;18.50;99.90
9125;DHT22;4597;48.730;9.114;2023-07-24T02:46:31;18.50;99.90
9125;DHT22;4597;48.730;9.114;2023-07-24T02:48:57;18.40;99.90
9125;DHT22;4597;48.730;9.114;2023-07-24T02:51:22;18.50;99.90
9125;DHT22;4597;48.730;9.114;2023-07-24T02:53:48;18.50;99.90
9125;DHT22;4597;48.730;9.114;2023-07-24T02:56:13;18.40;99.90
9125;DHT22;4597;48.730;9.114;2023-07-24T02:58:39;18.40;99.90
9125;DHT22;4597;48.730;9.114;2023-07-24T03:01:05;18.40;99.90
9125;DHT22;4597;48.730;9.114;2023-07-24T03:03:32;18.40;99.90
9125;DHT22;4597;48.730;9.114;2023-07-24T03:05:58;18.40;99.90
9125;DHT22;4597;48.730;9.114;2023-07-24T03:08:24;18.40;99.90
9125;DHT22;4597;48.730;9.114;2023-07-24T03:10:49;18.40;99.90
9125;DHT22;4597;48.730;9.114;2023-07-24T03:13:14;18.40;99.90
9125;DHT22;4597;48.730;9.114;2023-07-24T03:15:40;18.30;99.90
9125;DHT22;4597;48.730;9.114;2023-07-24T03:18:05;18.30;99.90
9125;DHT22;4597;48.730;9.114;2023-07-24T03:20:31;18.30;99.90
9125;DHT22;4597;48.730;9.114;2023-07-24T03:22:57;18.20;99.90
9125;DHT22;4597;48.730;9.114;2023-07-24T03:25:22;18.20;99.90
9125;DHT22;4597;48.730;9.114;2023-07-24T03:27:48;18.20;99.90
9125;DHT22;4597;48.730;9.114;2023-07-24T03:30:13;18.20;99.90
9125;DHT22;4597;48.730;9.114;2023-07-24T03:32:39;18.20;99.90
9125;DHT22;4597;48.730;9.114;2023-07-24T03:35:06;18.10;99.90
9125;DHT22;4597;48.730;9.114;2023-07-24T03:37:32;18.10;99.90
9125;DHT22;4597;48.730;9.114;2023-07-24T03:39:57;18.10;99.90
9125;DHT22;4597;48.730;9.114;2023-07-24T03:42:27;18.10;99.90
9125;DHT22;4597;48.730;9.114;2023-07-24T03:44:54;18.20;99.90
9125;DHT22;4597;48.730;9.114;2023-07-24T03:47:19;18.20;99.90
9125;DHT22;4597;48.730;9.114;2023-07-24T03:49:45;18.20;99.90
9125;DHT22;4597;48.730;9.114;2023-07-24T03:52:10;18.20;99.90
9125;DHT22;4597;48.730;9.114;2023-07-24T03:54:36;18.10;99.90
9125;DHT22;4597;48.730;9.114;2023-07-24T03:57:02;18.10;99.90
9125;DHT22;4597;48.730;9.114;2023-07-24T03:59:27;18.10;99.90
9125;DHT22;4597;48.730;9.114;2023-07-24T04:01:53;18.10;99.90
9125;DHT22;4597;48.730;9.114;2023-07-24T04:04:18;18.10;99.90
9125;DHT22;4597;48.730;9.114;2023-07-24T04:06:45;18.10;99.90
9125;DHT22;4597;48.730;9.114;2023-07-24T04:09:11;18.10;99.90
9125;DHT22;4597;48.730;9.114;2023-07-24T04:11:42;18.20;99.90
9125;DHT22;4597;48.730;9.114;2023-07-24T04:14:08;18.20;99.90
9125;DHT22;4597;48.730;9.114;2023-07-24T04:16:34;18.20;99.90
9125;DHT22;4597;48.730;9.114;2023-07-24T04:18:59;18.20;99.90
9125;DHT22;4597;48.730;9.114;2023-07-24T04:21:25;18.20;99.90
9125;DHT22;4597;48.730;9.114;2023-07-24T04:23:50;18.20;99.90
9125;DHT22;4597;48.730;9.114;2023-07-24T04:26:16;18.20;99.90
9125;DHT22;4597;48.730;9.114;2023-07-24T04:28:41;18.20;99.90
9125;DHT22;4597;48.730;9.114;2023-07-24T04:31:07;18.20;99.90
9125;DHT22;4597;48.730;9.114;2023-07-24T04:33:32;18.20;99.90
9125;DHT22;4597;48.730;9.114;2023-07-24T04:35:58;18.20;99.90
9125;DHT22;4597;48.730;9.114;2023-07-24T04:38:23;18.20;99.90
9125;DHT22;4597;48.730;9.114;2023-07-24T04:40:49;18.20;99.90
9125;DHT22;4597;48.730;9.114;2023-07-24T04:43:14;18.20;99.90
9125;DHT22;4597;48.730;9.114;2023-07-24T04:45:40;18.20;99.90
9125;DHT22;4597;48.730;9.114;2023-07-24T04:48:05;18.30;99.90
9125;DHT22;4597;48.730;9.114;2023-07-24T04:50:31;18.30;99.90
9125;DHT22;4597;48.730;9.114;2023-07-24T04:52:58;18.30;99.90
9125;DHT22;4597;48.730;9.114;2023-07-24T04:55:23;18.30;99.90
9125;DHT22;4597;48.730;9.114;2023-07-24T04:57:49;18.30;99.90
9125;DHT22;4597;48.730;9.114;2023-07-24T05:00:14;18.30;99.90
9125;DHT22;4597;48.730;9.114;2023-07-24T05:02:40;18.30;99.90
9125;DHT22;4597;48.730;9.114;2023-07-24T05:05:06;18.40;99.90
9125;DHT22;4597;48.730;9.114;2023-07-24T05:07:31;18.40;99.90
9125;DHT22;4597;48.730;9.114;2023-07-24T05:09:57;18.40;99.90
9125;DHT22;4597;48.730;9.114;2023-07-24T05:12:23;18.40;99.90
9125;DHT22;4597;48.730;9.114;2023-07-24T05:14:48;18.40;99.90
9125;DHT22;4597;48.730;9.114;2023-07-24T05:17:14;18.40;99.90
9125;DHT22;4597;48.730;9.114;2023-07-24T05:19:39;18.50;99.90
9125;DHT22;4597;48.730;9.114;2023-07-24T05:22:05;18.40;99.90
9125;DHT22;4597;48.730;9.114;2023-07-24T05:24:31;18.50;99.90
9125;DHT22;4597;48.730;9.114;2023-07-24T05:26:56;18.50;99.90
9125;DHT22;4597;48.730;9.114;2023-07-24T05:29:22;18.50;99.90
9125;DHT22;4597;48.730;9.114;2023-07-24T05:31:47;18.50;99.90
9125;DHT22;4597;48.730;9.114;2023-07-24T05:34:13;18.60;99.90
9125;DHT22;4597;48.730;9.114;2023-07-24T05:36:40;18.60;99.90
9125;DHT22;4597;48.730;9.114;2023-07-24T05:39:06;18.60;99.90
9125;DHT22;4597;48.730;9.114;2023-07-24T05:41:31;18.60;99.90
9125;DHT22;4597;48.730;9.114;2023-07-24T05:43:57;18.60;99.90
9125;DHT22;4597;48.730;9.114;2023-07-24T05:46:22;18.60;99.90
9125;DHT22;4597;48.730;9.114;2023-07-24T05:48:48;18.70;99.90
9125;DHT22;4597;48.730;9.114;2023-07-24T05:51:14;18.70;99.90
9125;DHT22;4597;48.730;9.114;2023-07-24T05:53:39;18.80;99.90
9125;DHT22;4597;48.730;9.114;2023-07-24T05:56:05;18.80;99.90
9125;DHT22;4597;48.730;9.114;2023-07-24T05:58:30;18.90;99.90
9125;DHT22;4597;48.730;9.114;2023-07-24T06:00:56;18.90;99.90
9125;DHT22;4597;48.730;9.114;2023-07-24T06:03:23;18.90;99.90
9125;DHT22;4597;48.730;9.114;2023-07-24T06:05:52;18.90;99.90
9125;DHT22;4597;48.730;9.114;2023-07-24T06:08:19;19.00;99.90
9125;DHT22;4597;48.730;9.114;2023-07-24T06:10:48;19.00;99.90
9125;DHT22;4597;48.730;9.114;2023-07-24T06:13:15;19.00;99.90
9125;DHT22;4597;48.730;9.114;2023-07-24T06:15:41;19.00;99.90
9125;DHT22;4597;48.730;9.114;2023-07-24T06:18:07;19.10;99.90
9125;DHT22;4597;48.730;9.114;2023-07-24T06:20:32;19.10;99.90
9125;DHT22;4597;48.730;9.114;2023-07-24T06:22:58;19.10;99.90
9125;DHT22;4597;48.730;9.114;2023-07-24T06:25:23;19.10;99.90
9125;DHT22;4597;48.730;9.114;2023-07-24T06:27:49;19.20;99.90
9125;DHT22;4597;48.730;9.114;2023-07-24T06:30:14;19.30;99.90
9125;DHT22;4597;48.730;9.114;2023-07-24T06:32:40;19.20;99.90
9125;DHT22;4597;48.730;9.114;2023-07-24T06:35:05;19.30;99.90
9125;DHT22;4597;48.730;9.114;2023-07-24T06:37:31;19.30;99.90
9125;DHT22;4597;48.730;9.114;2023-07-24T06:39:56;19.40;99.90
9125;DHT22;4597;48.730;9.114;2023-07-24T06:42:22;19.40;99.90
9125;DHT22;4597;48.730;9.114;2023-07-24T06:44:47;19.50;99.90
9125;DHT22;4597;48.730;9.114;2023-07-24T06:47:13;19.50;99.90
9125;DHT22;4597;48.730;9.114;2023-07-24T06:49:38;19.60;99.90
9125;DHT22;4597;48.730;9.114;2023-07-24T06:52:04;19.70;99.90
9125;DHT22;4597;48.730;9.114;2023-07-24T06:54:30;19.80;99.90
9125;DHT22;4597;48.730;9.114;2023-07-24T06:56:55;19.80;99.90
9125;DHT22;4597;48.730;9.114;2023-07-24T06:59:21;19.90;99.90
9125;DHT22;4597;48.730;9.114;2023-07-24T07:01:46;20.00;99.90
9125;DHT22;4597;48.730;9.114;2023-07-24T07:04:12;20.10;99.90
9125;DHT22;4597;48.730;9.114;2023-07-24T07:06:37;20.20;99.90
9125;DHT22;4597;48.730;9.114;2023-07-24T07:09:03;20.20;99.90
9125;DHT22;4597;48.730;9.114;2023-07-24T07:11:30;20.20;99.90
9125;DHT22;4597;48.730;9.114;2023-07-24T07:13:55;20.30;99.90
9125;DHT22;4597;48.730;9.114;2023-07-24T07:16:21;20.40;99.90
9125;DHT22;4597;48.730;9.114;2023-07-24T07:18:46;20.40;99.90
9125;DHT22;4597;48.730;9.114;2023-07-24T07:21:12;20.60;99.90
9125;DHT22;4597;48.730;9.114;2023-07-24T07:23:37;20.60;99.90
9125;DHT22;4597;48.730;9.114;2023-07-24T07:26:03;20.60;99.90
9125;DHT22;4597;48.730;9.114;2023-07-24T07:28:28;20.60;99.90
9125;DHT22;4597;48.730;9.114;2023-07-24T07:30:54;20.50;99.90
9125;DHT22;4597;48.730;9.114;2023-07-24T07:33:19;20.50;99.90
9125;DHT22;4597;48.730;9.114;2023-07-24T07:35:49;20.40;99.90
9125;DHT22;4597;48.730;9.114;2023-07-24T07:38:14;20.40;99.90
9125;DHT22;4597;48.730;9.114;2023-07-24T07:40:40;20.40;99.90
9125;DHT22;4597;48.730;9.114;2023-07-24T07:43:05;20.40;99.90
9125;DHT22;4597;48.730;9.114;2023-07-24T07:45:31;20.40;99.90
9125;DHT22;4597;48.730;9.114;2023-07-24T07:47:56;20.30;99.90
9125;DHT22;4597;48.730;9.114;2023-07-24T07:50:22;20.30;99.90
9125;DHT22;4597;48.730;9.114;2023-07-24T07:52:52;20.30;99.90
9125;DHT22;4597;48.730;9.114;2023-07-24T07:55:18;20.30;99.90
9125;DHT22;4597;48.730;9.114;2023-07-24T07:57:44;20.40;99.90
9125;DHT22;4597;48.730;9.114;2023-07-24T08:00:10;20.40;99.90
9125;DHT22;4597;48.730;9.114;2023-07-24T08:02:35;20.40;99.90
9125;DHT22;4597;48.730;9.114;2023-07-24T08:05:08;20.40;99.90
9125;DHT22;4597;48.730;9.114;2023-07-24T08:07:34;20.40;99.90
9125;DHT22;4597;48.730;9.114;2023-07-24T08:10:00;20.30;99.90
9125;DHT22;4597;48.730;9.114;2023-07-24T08:12:25;20.30;99.90
9125;DHT22;4597;48.730;9.114;2023-07-24T08:14:51;20.30;99.90
9125;DHT22;4597;48.730;9.114;2023-07-24T08:17:16;20.20;99.90
9125;DHT22;4597;48.730;9.114;2023-07-24T08:19:42;20.20;99.90
9125;DHT22;4597;48.730;9.114;2023-07-24T08:22:08;20.20;99.90
9125;DHT22;4597;48.730;9.114;2023-07-24T08:24:34;20.20;99.90
9125;DHT22;4597;48.730;9.114;2023-07-24T08:27:00;20.20;99.90
9125;DHT22;4597;48.730;9.114;2023-07-24T08:29:26;20.20;99.90
9125;DHT22;4597;48.730;9.114;2023-07-24T08:31:52;20.30;99.90
9125;DHT22;4597;48.730;9.114;2023-07-24T08:34:17;20.30;99.90
9125;DHT22;4597;48.730;9.114;2023-07-24T08:36:43;20.30;99.90
9125;DHT22;4597;48.730;9.114;2023-07-24T08:39:08;20.40;99.90
9125;DHT22;4597;48.730;9.114;2023-07-24T08:41:34;20.40;99.90
9125;DHT22;4597;48.730;9.114;2023-07-24T08:44:01;20.40;99.90
9125;DHT22;4597;48.730;9.114;2023-07-24T08:46:30;20.40;99.90
9125;DHT22;4597;48.730;9.114;2023-07-24T08:48:55;20.40;99.90
9125;DHT22;4597;48.730;9.114;2023-07-24T08:51:21;20.40;99.90
9125;DHT22;4597;48.730;9.114;2023-07-24T08:53:48;20.50;99.90
9125;DHT22;4597;48.730;9.114;2023-07-24T08:56:14;20.50;99.90
9125;DHT22;4597;48.730;9.114;2023-07-24T08:58:40;20.50;99.90
9125;DHT22;4597;48.730;9.114;2023-07-24T09:01:07;20.60;99.90
9125;DHT22;4597;48.730;9.114;2023-07-24T09:03:33;20.70;99.90
9125;DHT22;4597;48.730;9.114;2023-07-24T09:05:59;20.90;99.90
9125;DHT22;4597;48.730;9.114;2023-07-24T09:11:00;21.20;99.90
9125;DHT22;4597;48.730;9.114;2023-07-24T09:13:26;21.30;99.90
9125;DHT22;4597;48.730;9.114;2023-07-24T09:15:51;21.40;99.90
9125;DHT22;4597;48.730;9.114;2023-07-24T09:18:17;21.50;99.90
9125;DHT22;4597;48.730;9.114;2023-07-24T09:20:43;21.60;99.90
9125;DHT22;4597;48.730;9.114;2023-07-24T09:23:11;21.60;99.90
9125;DHT22;4597;48.730;9.114;2023-07-24T09:25:38;21.70;99.90
9125;DHT22;4597;48.730;9.114;2023-07-24T09:28:14;21.80;99.90
9125;DHT22;4597;48.730;9.114;2023-07-24T09:30:41;21.90;99.90
9125;DHT22;4597;48.730;9.114;2023-07-24T09:33:07;22.00;99.90
9125;DHT22;4597;48.730;9.114;2023-07-24T09:35:33;22.00;99.90
9125;DHT22;4597;48.730;9.114;2023-07-24T09:38:07;22.10;99.90
9125;DHT22;4597;48.730;9.114;2023-07-24T09:40:43;22.20;99.90
9125;DHT22;4597;48.730;9.114;2023-07-24T09:45:41;22.40;99.90
9125;DHT22;4597;48.730;9.114;2023-07-24T09:48:07;22.40;99.90
9125;DHT22;4597;48.730;9.114;2023-07-24T09:50:37;22.40;99.90
9125;DHT22;4597;48.730;9.114;2023-07-24T09:53:03;22.40;99.90
9125;DHT22;4597;48.730;9.114;2023-07-24T09:55:35;22.40;99.90
9125;DHT22;4597;48.730;9.114;2023-07-24T09:58:02;22.30;99.90
9125;DHT22;4597;48.730;9.114;2023-07-24T10:00:29;22.20;99.90
9125;DHT22;4597;48.730;9.114;2023-07-24T10:02:56;22.10;99.90
9125;DHT22;4597;48.730;9.114;2023-07-24T10:05:22;22.10;99.90
9125;DHT22;4597;48.730;9.114;2023-07-24T10:07:48;22.00;99.90
9125;DHT22;4597;48.730;9.114;2023-07-24T10:10:14;21.90;99.90
9125;DHT22;4597;48.730;9.114;2023-07-24T10:12:40;21.90;99.90
9125;DHT22;4597;48.730;9.114;2023-07-24T10:15:06;21.90;99.90
9125;DHT22;4597;48.730;9.114;2023-07-24T10:17:36;21.80;99.90
9125;DHT22;4597;48.730;9.114;2023-07-24T10:20:04;21.80;99.90
9125;DHT22;4597;48.730;9.114;2023-07-24T10:22:29;21.70;99.90
9125;DHT22;4597;48.730;9.114;2023-07-24T10:24:55;21.70;99.90
9125;DHT22;4597;48.730;9.114;2023-07-24T10:27:24;21.70;99.90
9125;DHT22;4597;48.730;9.114;2023-07-24T10:30:03;21.70;99.90
9125;DHT22;4597;48.730;9.114;2023-07-24T10:32:30;21.60;99.90
9125;DHT22;4597;48.730;9.114;2023-07-24T10:35:05;21.60;99.90
9125;DHT22;4597;48.730;9.114;2023-07-24T10:37:35;21.50;99.90
9125;DHT22;4597;48.730;9.114;2023-07-24T10:40:02;21.50;99.90
9125;DHT22;4597;48.730;9.114;2023-07-24T10:42:28;21.50;99.90
9125;DHT22;4597;48.730;9.114;2023-07-24T10:45:08;21.50;99.90
9125;DHT22;4597;48.730;9.114;2023-07-24T10:47:34;21.30;99.90
9125;DHT22;4597;48.730;9.114;2023-07-24T10:50:00;21.30;99.90
9125;DHT22;4597;48.730;9.114;2023-07-24T10:52:33;21.30;99.90
9125;DHT22;4597;48.730;9.114;2023-07-24T10:55:02;21.20;99.90
9125;DHT22;4597;48.730;9.114;2023-07-24T10:57:29;21.20;99.90
9125;DHT22;4597;48.730;9.114;2023-07-24T10:59:54;21.20;99.90
9125;DHT22;4597;48.730;9.114;2023-07-24T11:02:20;21.10;99.90
9125;DHT22;4597;48.730;9.114;2023-07-24T11:04:46;21.10;99.90
9125;DHT22;4597;48.730;9.114;2023-07-24T11:07:12;21.00;99.90
9125;DHT22;4597;48.730;9.114;2023-07-24T11:09:39;21.00;99.90
9125;DHT22;4597;48.730;9.114;2023-07-24T11:12:16;21.00;99.90
9125;DHT22;4597;48.730;9.114;2023-07-24T11:14:52;21.10;99.90
9125;DHT22;4597;48.730;9.114;2023-07-24T11:17:21;21.10;99.90
9125;DHT22;4597;48.730;9.114;2023-07-24T11:19:46;21.10;99.90
9125;DHT22;4597;48.730;9.114;2023-07-24T11:22:12;21.10;99.90
9125;DHT22;4597;48.730;9.114;2023-07-24T11:24:47;21.10;99.90
9125;DHT22;4597;48.730;9.114;2023-07-24T11:27:14;21.20;99.90
9125;DHT22;4597;48.730;9.114;2023-07-24T11:29:41;21.20;99.90
9125;DHT22;4597;48.730;9.114;2023-07-24T11:32:06;21.20;99.90
9125;DHT22;4597;48.730;9.114;2023-07-24T11:34:32;21.20;99.90
9125;DHT22;4597;48.730;9.114;2023-07-24T11:36:58;21.20;99.90
9125;DHT22;4597;48.730;9.114;2023-07-24T11:39:24;21.20;99.90
9125;DHT22;4597;48.730;9.114;2023-07-24T11:41:50;21.20;99.90
9125;DHT22;4597;48.730;9.114;2023-07-24T11:44:15;21.40;99.90
9125;DHT22;4597;48.730;9.114;2023-07-24T11:46:42;21.60;99.90
9125;DHT22;4597;48.730;9.114;2023-07-24T11:49:14;21.80;99.90
9125;DHT22;4597;48.730;9.114;2023-07-24T11:51:40;22.00;99.90
9125;DHT22;4597;48.730;9.114;2023-07-24T11:54:06;22.20;99.90
9125;DHT22;4597;48.730;9.114;2023-07-24T11:56:32;22.20;99.90
9125;DHT22;4597;48.730;9.114;2023-07-24T11:59:09;22.30;99.90
9125;DHT22;4597;48.730;9.114;2023-07-24T12:01:35;22.20;99.90
9125;DHT22;4597;48.730;9.114;2023-07-24T12:04:00;22.20;99.90
9125;DHT22;4597;48.730;9.114;2023-07-24T12:06:26;22.00;99.90
9125;DHT22;4597;48.730;9.114;2023-07-24T12:08:51;21.90;99.90
9125;DHT22;4597;48.730;9.114;2023-07-24T12:11:26;21.80;99.90
9125;DHT22;4597;48.730;9.114;2023-07-24T12:13:51;21.60;99.90
9125;DHT22;4597;48.730;9.114;2023-07-24T12:16:19;21.50;99.90
9125;DHT22;4597;48.730;9.114;2023-07-24T12:18:44;21.40;99.90
9125;DHT22;4597;48.730;9.114;2023-07-24T12:21:10;21.40;99.90
9125;DHT22;4597;48.730;9.114;2023-07-24T12:23:35;21.30;99.90
9125;DHT22;4597;48.730;9.114;2023-07-24T12:26:01;21.30;99.90
9125;DHT22;4597;48.730;9.114;2023-07-24T12:28:26;21.30;99.90
9125;DHT22;4597;48.730;9.114;2023-07-24T12:30:52;21.30;99.90
9125;DHT22;4597;48.730;9.114;2023-07-24T12:33:17;21.20;99.90
9125;DHT22;4597;48.730;9.114;2023-07-24T12:35:43;21.10;99.90
9125;DHT22;4597;48.730;9.114;2023-07-24T12:38:08;21.10;99.90
9125;DHT22;4597;48.730;9.114;2023-07-24T12:40:34;21.20;99.90
9125;DHT22;4597;48.730;9.114;2023-07-24T12:42:59;21.10;99.90
9125;DHT22;4597;48.730;9.114;2023-07-24T12:45:25;21.10;99.90
9125;DHT22;4597;48.730;9.114;2023-07-24T12:47:50;21.10;99.90
9125;DHT22;4597;48.730;9.114;2023-07-24T12:50:16;21.00;99.90
9125;DHT22;4597;48.730;9.114;2023-07-24T12:52:41;21.00;99.90
9125;DHT22;4597;48.730;9.114;2023-07-24T12:55:07;21.10;99.90
9125;DHT22;4597;48.730;9.114;2023-07-24T12:57:33;21.10;99.90
9125;DHT22;4597;48.730;9.114;2023-07-24T12:59:58;21.20;99.90
9125;DHT22;4597;48.730;9.114;2023-07-24T13:02:24;21.20;99.90
9125;DHT22;4597;48.730;9.114;2023-07-24T13:04:49;21.20;99.90
9125;DHT22;4597;48.730;9.114;2023-07-24T13:07:16;21.20;99.90
9125;DHT22;4597;48.730;9.114;2023-07-24T13:09:41;21.20;99.90
9125;DHT22;4597;48.730;9.114;2023-07-24T13:12:07;21.20;99.90
9125;DHT22;4597;48.730;9.114;2023-07-24T13:14:33;21.20;99.90
9125;DHT22;4597;48.730;9.114;2023-07-24T13:16:59;21.30;99.90
9125;DHT22;4597;48.730;9.114;2023-07-24T13:19:24;21.30;99.90
9125;DHT22;4597;48.730;9.114;2023-07-24T13:21:50;21.40;99.90
9125;DHT22;4597;48.730;9.114;2023-07-24T13:24:15;21.40;99.90
9125;DHT22;4597;48.730;9.114;2023-07-24T13:26:41;21.40;99.90
9125;DHT22;4597;48.730;9.114;2023-07-24T13:29:06;21.50;99.90
9125;DHT22;4597;48.730;9.114;2023-07-24T13:31:32;21.40;99.90
9125;DHT22;4597;48.730;9.114;2023-07-24T13:33:57;21.40;99.90
9125;DHT22;4597;48.730;9.114;2023-07-24T13:36:23;21.40;99.90
9125;DHT22;4597;48.730;9.114;2023-07-24T13:38:48;21.50;99.90
9125;DHT22;4597;48.730;9.114;2023-07-24T13:41:15;21.50;99.90
9125;DHT22;4597;48.730;9.114;2023-07-24T13:43:41;21.60;99.90
9125;DHT22;4597;48.730;9.114;2023-07-24T13:46:06;21.60;99.90
9125;DHT22;4597;48.730;9.114;2023-07-24T13:48:33;21.60;99.90
9125;DHT22;4597;48.730;9.114;2023-07-24T13:50:59;21.80;99.90
9125;DHT22;4597;48.730;9.114;2023-07-24T13:53:24;22.00;99.90
9125;DHT22;4597;48.730;9.114;2023-07-24T13:55:50;22.20;99.90
9125;DHT22;4597;48.730;9.114;2023-07-24T13:58:16;22.50;99.90
9125;DHT22;4597;48.730;9.114;2023-07-24T14:00:41;22.80;99.90
9125;DHT22;4597;48.730;9.114;2023-07-24T14:03:07;23.30;99.90
9125;DHT22;4597;48.730;9.114;2023-07-24T14:05:34;24.00;99.90
9125;DHT22;4597;48.730;9.114;2023-07-24T14:08:02;24.40;99.90
9125;DHT22;4597;48.730;9.114;2023-07-24T14:10:27;24.40;99.90
9125;DHT22;4597;48.730;9.114;2023-07-24T14:12:53;24.50;99.90
9125;DHT22;4597;48.730;9.114;2023-07-24T14:15:18;24.20;99.90
9125;DHT22;4597;48.730;9.114;2023-07-24T14:17:44;24.10;99.90
9125;DHT22;4597;48.730;9.114;2023-07-24T14:20:09;24.20;99.90
9125;DHT22;4597;48.730;9.114;2023-07-24T14:22:36;24.20;99.90
9125;DHT22;4597;48.730;9.114;2023-07-24T14:25:02;24.30;99.90
9125;DHT22;4597;48.730;9.114;2023-07-24T14:27:27;24.80;99.90
9125;DHT22;4597;48.730;9.114;2023-07-24T14:29:53;25.00;99.90
9125;DHT22;4597;48.730;9.114;2023-07-24T14:32:18;25.00;99.90
9125;DHT22;4597;48.730;9.114;2023-07-24T14:34:47;25.30;99.90
9125;DHT22;4597;48.730;9.114;2023-07-24T14:37:12;25.60;99.90
9125;DHT22;4597;48.730;9.114;2023-07-24T14:39:38;26.60;99.90
9125;DHT22;4597;48.730;9.114;2023-07-24T14:42:04;28.20;99.90
9125;DHT22;4597;48.730;9.114;2023-07-24T14:44:30;29.00;99.90
9125;DHT22;4597;48.730;9.114;2023-07-24T14:46:55;28.90;99.90
9125;DHT22;4597;48.730;9.114;2023-07-24T14:49:20;28.70;99.90
9125;DHT22;4597;48.730;9.114;2023-07-24T14:51:46;28.50;99.90
9125;DHT22;4597;48.730;9.114;2023-07-24T14:54:11;28.70;99.90
9125;DHT22;4597;48.730;9.114;2023-07-24T14:56:37;30.00;94.20
9125;DHT22;4597;48.730;9.114;2023-07-24T14:59:02;31.00;80.50
9125;DHT22;4597;48.730;9.114;2023-07-24T15:01:28;31.70;80.50
9125;DHT22;4597;48.730;9.114;2023-07-24T15:03:56;31.80;70.40
9125;DHT22;4597;48.730;9.114;2023-07-24T15:06:21;31.20;68.20
9125;DHT22;4597;48.730;9.114;2023-07-24T15:08:47;30.00;70.80
9125;DHT22;4597;48.730;9.114;2023-07-24T15:11:12;29.40;70.80
9125;DHT22;4597;48.730;9.114;2023-07-24T15:13:38;29.10;74.30
9125;DHT22;4597;48.730;9.114;2023-07-24T15:16:04;29.60;72.80
9125;DHT22;4597;48.730;9.114;2023-07-24T15:18:30;30.10;68.00
9125;DHT22;4597;48.730;9.114;2023-07-24T15:20:55;30.80;63.90
9125;DHT22;4597;48.730;9.114;2023-07-24T15:23:21;31.00;61.20
9125;DHT22;4597;48.730;9.114;2023-07-24T15:25:46;30.70;60.80
9125;DHT22;4597;48.730;9.114;2023-07-24T15:28:12;29.90;59.40
9125;DHT22;4597;48.730;9.114;2023-07-24T15:30:38;28.80;64.30
9125;DHT22;4597;48.730;9.114;2023-07-24T15:33:03;27.80;65.80
9125;DHT22;4597;48.730;9.114;2023-07-24T15:35:29;26.60;70.50
9125;DHT22;4597;48.730;9.114;2023-07-24T15:37:54;26.00;74.40
9125;DHT22;4597;48.730;9.114;2023-07-24T15:40:20;25.50;76.60
9125;DHT22;4597;48.730;9.114;2023-07-24T15:42:45;25.30;79.20
9125;DHT22;4597;48.730;9.114;2023-07-24T15:45:12;25.00;80.90
9125;DHT22;4597;48.730;9.114;2023-07-24T15:47:37;24.80;83.60
9125;DHT22;4597;48.730;9.114;2023-07-24T15:50:03;24.60;87.30
9125;DHT22;4597;48.730;9.114;2023-07-24T15:52:30;24.50;90.60
9125;DHT22;4597;48.730;9.114;2023-07-24T15:54:55;24.30;91.40
9125;DHT22;4597;48.730;9.114;2023-07-24T15:57:21;24.20;93.00
9125;DHT22;4597;48.730;9.114;2023-07-24T15:59:46;24.10;96.30